createdAt,value
2017-12-27T00:03:02.838Z,98924.89
2017-12-27T00:04:15.582Z,98928.23
2017-12-27T00:05:27.054Z,98920.77
2017-12-27T00:06:53.066Z,98913.84
2017-12-27T00:08:31.707Z,98912.97
2017-12-27T00:10:02.089Z,98916.66
2017-12-27T00:11:13.895Z,98915.67
2017-12-27T00:12:43.018Z,98916.39
2017-12-27T00:14:11.741Z,98913.80
2017-12-27T00:15:24.513Z,98908.55
2017-12-27T00:16:36.163Z,98912.66
2017-12-27T00:17:47.721Z,98909.29
2017-12-27T00:19:02.418Z,98907.41
2017-12-27T00:20:14.054Z,98902.66
2017-12-27T00:21:25.578Z,98909.45
2017-12-27T00:22:37.350Z,98911.47
2017-12-27T00:23:51.803Z,98908.12
2017-12-27T00:25:03.865Z,98902.13
2017-12-27T00:26:15.500Z,98903.98
2017-12-27T00:27:27.195Z,98903.36
2017-12-27T00:28:38.797Z,98906.03
2017-12-27T00:29:54.282Z,98903.75
2017-12-27T00:31:05.925Z,98903.16
2017-12-27T00:32:15.323Z,98901.34
2017-12-27T00:33:21.532Z,98903.25
2017-12-27T00:34:27.693Z,98892.88
2017-12-27T00:35:35.158Z,98890.84
2017-12-27T00:36:46.203Z,98885.69
2017-12-27T00:37:52.481Z,98889.13
2017-12-27T00:39:00.502Z,98880.64
2017-12-27T00:40:06.677Z,98881.22
2017-12-27T00:41:12.880Z,98877.25
2017-12-27T00:42:19.086Z,98881.58
2017-12-27T00:43:25.253Z,98884.09
2017-12-27T00:44:31.233Z,98878.60
2017-12-27T00:45:37.439Z,98884.22
2017-12-27T00:46:43.622Z,98882.79
2017-12-27T00:47:49.772Z,98881.49
2017-12-27T00:48:55.648Z,98881.22
2017-12-27T00:50:01.844Z,98875.84
2017-12-27T00:51:08.043Z,98872.53
2017-12-27T00:52:14.280Z,98873.83
2017-12-27T00:53:20.544Z,98874.17
2017-12-27T00:54:27.363Z,98873.36
2017-12-27T00:55:34.063Z,98872.11
2017-12-27T00:56:40.247Z,98870.55
2017-12-27T00:57:46.714Z,98867.53
2017-12-27T00:58:52.972Z,98869.25
2017-12-27T00:59:59.152Z,98857.27
2017-12-27T01:01:05.354Z,98861.67
2017-12-27T01:02:11.631Z,98858.23
2017-12-27T01:03:18.066Z,98856.42
2017-12-27T01:04:24.552Z,98853.54
2017-12-27T01:05:30.842Z,98856.13
2017-12-27T01:06:37.014Z,98858.13
2017-12-27T01:07:43.219Z,98866.47
2017-12-27T01:08:49.383Z,98864.14
2017-12-27T01:09:55.649Z,98863.73
2017-12-27T01:11:01.562Z,98860.45
2017-12-27T01:12:07.470Z,98858.36
2017-12-27T01:13:13.724Z,98861.09
2017-12-27T01:14:19.649Z,98856.40
2017-12-27T01:15:27.574Z,98862.04
2017-12-27T01:16:33.803Z,98867.47
2017-12-27T01:17:40.002Z,98858.86
2017-12-27T01:18:46.330Z,98859.27
2017-12-27T01:19:52.744Z,98855.63
2017-12-27T01:20:58.915Z,98855.39
2017-12-27T01:22:04.858Z,98858.97
2017-12-27T01:23:10.738Z,98855.63
2017-12-27T01:24:16.904Z,98850.80
2017-12-27T01:25:23.153Z,98848.42
2017-12-27T01:26:29.384Z,98856.95
2017-12-27T01:27:35.544Z,98846.54
2017-12-27T01:28:43.650Z,98847.02
2017-12-27T01:29:49.883Z,98850.45
2017-12-27T01:30:56.050Z,98849.11
2017-12-27T01:32:01.958Z,98853.27
2017-12-27T01:33:08.134Z,98848.38
2017-12-27T01:34:14.390Z,98844.56
2017-12-27T01:35:20.781Z,98849.89
2017-12-27T01:36:26.981Z,98845.23
2017-12-27T01:37:33.330Z,98843.18
2017-12-27T01:38:39.503Z,98843.39
2017-12-27T01:39:45.666Z,98836.22
2017-12-27T01:40:51.822Z,98832.89
2017-12-27T01:41:58.053Z,98827.86
2017-12-27T01:43:04.227Z,98830.98
2017-12-27T01:44:10.441Z,98826.50
2017-12-27T01:45:16.641Z,98827.61
2017-12-27T01:46:22.821Z,98822.45
2017-12-27T01:47:28.994Z,98824.52
2017-12-27T01:48:35.176Z,98818.55
2017-12-27T01:49:41.395Z,98820.29
2017-12-27T01:50:47.109Z,98812.50
2017-12-27T01:51:52.867Z,98804.37
2017-12-27T01:52:59.046Z,98815.55
2017-12-27T01:54:05.226Z,98816.71
2017-12-27T01:55:11.218Z,98814.95
2017-12-27T01:56:17.455Z,98813.34
2017-12-27T01:57:23.198Z,98814.34
2017-12-27T01:58:29.399Z,98812.51
2017-12-27T01:59:35.369Z,98806.73
2017-12-27T02:00:41.574Z,98805.16
2017-12-27T02:01:46.410Z,98803.84
2017-12-27T02:02:52.829Z,98799.91
2017-12-27T02:03:58.725Z,98798.67
2017-12-27T02:05:04.631Z,98795.04
2017-12-27T02:06:10.844Z,98790.42
2017-12-27T02:07:17.045Z,98783.47
2017-12-27T02:08:23.169Z,98784.64
2017-12-27T02:09:29.349Z,98779.45
2017-12-27T02:10:35.564Z,98775.00
2017-12-27T02:11:41.515Z,98771.38
2017-12-27T02:12:47.570Z,98774.34
2017-12-27T02:13:58.804Z,98765.65
2017-12-27T02:15:04.835Z,98768.94
2017-12-27T02:16:10.831Z,98759.00
2017-12-27T02:17:17.019Z,98755.72
2017-12-27T02:18:23.198Z,98763.30
2017-12-27T02:19:29.646Z,98757.20
2017-12-27T02:20:35.811Z,98757.31
2017-12-27T02:21:41.984Z,98755.30
2017-12-27T02:22:48.259Z,98743.75
2017-12-27T02:23:57.313Z,98745.88
2017-12-27T02:25:03.570Z,98746.64
2017-12-27T02:26:09.757Z,98753.42
2017-12-27T02:27:15.970Z,98751.09
2017-12-27T02:28:22.158Z,98747.83
2017-12-27T02:29:28.129Z,98742.03
2017-12-27T02:30:34.558Z,98743.44
2017-12-27T02:31:40.729Z,98744.02
2017-12-27T02:32:46.944Z,98749.97
2017-12-27T02:33:53.182Z,98748.98
2017-12-27T02:34:59.468Z,98743.73
2017-12-27T02:36:05.547Z,98741.14
2017-12-27T02:37:11.749Z,98738.84
2017-12-27T02:38:17.225Z,98735.67
2017-12-27T02:39:29.053Z,98739.19
2017-12-27T02:40:35.004Z,98731.11
2017-12-27T02:41:41.002Z,98731.98
2017-12-27T02:42:46.384Z,98723.43
2017-12-27T02:43:52.788Z,98720.39
2017-12-27T02:44:59.018Z,98721.71
2017-12-27T02:46:04.973Z,98718.56
2017-12-27T02:47:11.183Z,98716.28
2017-12-27T02:48:17.407Z,98711.10
2017-12-27T02:49:23.589Z,98717.83
2017-12-27T02:50:29.804Z,98711.69
2017-12-27T02:51:36.052Z,98707.43
2017-12-27T02:52:42.210Z,98708.45
2017-12-27T02:53:48.825Z,98694.17
2017-12-27T02:54:55.045Z,98694.64
2017-12-27T02:56:01.257Z,98692.77
2017-12-27T02:57:07.490Z,98686.31
2017-12-27T02:58:13.710Z,98674.03
2017-12-27T02:59:19.903Z,98675.34
2017-12-27T03:00:26.133Z,98677.04
2017-12-27T03:01:32.136Z,98669.66
2017-12-27T03:02:38.083Z,98660.66
2017-12-27T03:03:44.258Z,98663.03
2017-12-27T03:04:50.463Z,98656.40
2017-12-27T03:05:58.118Z,98658.88
2017-12-27T03:07:04.007Z,98663.40
2017-12-27T03:08:10.169Z,98654.88
2017-12-27T03:09:16.380Z,98655.89
2017-12-27T03:10:22.292Z,98651.44
2017-12-27T03:11:28.519Z,98657.44
2017-12-27T03:12:34.542Z,98651.29
2017-12-27T03:13:40.730Z,98653.42
2017-12-27T03:14:46.968Z,98650.27
2017-12-27T03:15:53.228Z,98646.91
2017-12-27T03:16:59.396Z,98646.91
2017-12-27T03:18:05.612Z,98647.59
2017-12-27T03:19:11.816Z,98635.98
2017-12-27T03:20:18.134Z,98634.86
2017-12-27T03:21:24.367Z,98635.28
2017-12-27T03:22:30.308Z,98626.06
2017-12-27T03:23:36.460Z,98626.27
2017-12-27T03:24:42.649Z,98622.59
2017-12-27T03:25:48.870Z,98618.41
2017-12-27T03:26:55.114Z,98614.17
2017-12-27T03:28:01.373Z,98612.03
2017-12-27T03:29:07.586Z,98607.83
2017-12-27T03:30:13.755Z,98605.23
2017-12-27T03:31:19.701Z,98601.65
2017-12-27T03:32:25.917Z,98601.95
2017-12-27T03:33:32.165Z,98599.51
2017-12-27T03:34:38.357Z,98600.33
2017-12-27T03:35:44.305Z,98597.87
2017-12-27T03:36:50.503Z,98598.61
2017-12-27T03:37:56.725Z,98603.27
2017-12-27T03:39:04.288Z,98604.02
2017-12-27T03:40:10.489Z,98599.31
2017-12-27T03:41:16.653Z,98596.20
2017-12-27T03:42:22.878Z,98591.41
2017-12-27T03:43:29.174Z,98583.05
2017-12-27T03:44:35.315Z,98593.66
2017-12-27T03:45:41.537Z,98583.09
2017-12-27T03:46:47.754Z,98572.83
2017-12-27T03:47:53.989Z,98574.72
2017-12-27T03:49:00.157Z,98568.77
2017-12-27T03:50:06.639Z,98567.53
2017-12-27T03:51:13.128Z,98555.69
2017-12-27T03:52:20.182Z,98553.80
2017-12-27T03:53:26.393Z,98552.42
2017-12-27T03:54:37.416Z,98554.95
2017-12-27T03:55:43.665Z,98548.16
2017-12-27T03:56:49.853Z,98541.67
2017-12-27T03:57:56.014Z,98536.32
2017-12-27T03:59:02.249Z,98530.48
2017-12-27T04:00:08.423Z,98527.64
2017-12-27T04:01:19.693Z,98522.30
2017-12-27T04:02:25.890Z,98524.37
2017-12-27T04:03:36.962Z,98523.72
2017-12-27T04:04:44.362Z,98520.56
2017-12-27T04:05:50.334Z,98519.09
2017-12-27T04:06:56.773Z,98515.70
2017-12-27T04:08:02.939Z,98505.34
2017-12-27T04:09:09.160Z,98509.63
2017-12-27T04:10:15.359Z,98498.56
2017-12-27T04:11:21.630Z,98492.45
2017-12-27T04:12:29.708Z,98494.13
2017-12-27T04:13:35.866Z,98488.41
2017-12-27T04:14:42.096Z,98486.47
2017-12-27T04:15:48.382Z,98484.74
2017-12-27T04:16:54.616Z,98477.22
2017-12-27T04:18:00.836Z,98478.62
2017-12-27T04:19:07.042Z,98482.48
2017-12-27T04:20:13.331Z,98477.27
2017-12-27T04:21:19.589Z,98476.91
2017-12-27T04:22:25.782Z,98473.84
2017-12-27T04:23:31.990Z,98476.16
2017-12-27T04:24:38.177Z,98480.59
2017-12-27T04:25:49.434Z,98478.47
2017-12-27T04:26:55.656Z,98473.86
2017-12-27T04:28:01.886Z,98474.79
2017-12-27T04:29:08.066Z,98459.20
2017-12-27T04:30:14.228Z,98456.38
2017-12-27T04:31:20.423Z,98448.76
2017-12-27T04:32:28.472Z,98443.59
2017-12-27T04:33:34.705Z,98443.66
2017-12-27T04:34:40.668Z,98444.87
2017-12-27T04:35:46.848Z,98442.24
2017-12-27T04:36:53.109Z,98447.75
2017-12-27T04:37:59.338Z,98447.48
2017-12-27T04:39:04.897Z,98447.41
2017-12-27T04:40:11.081Z,98451.17
2017-12-27T04:41:17.303Z,98444.44
2017-12-27T04:42:23.533Z,98442.84
2017-12-27T04:43:29.834Z,98440.70
2017-12-27T04:44:36.004Z,98446.16
2017-12-27T04:45:42.234Z,98443.32
2017-12-27T04:46:49.286Z,98443.41
2017-12-27T04:47:55.453Z,98439.97
2017-12-27T04:49:02.404Z,98443.32
2017-12-27T04:50:08.644Z,98435.72
2017-12-27T04:51:14.883Z,98432.59
2017-12-27T04:52:21.088Z,98438.70
2017-12-27T04:53:27.064Z,98438.53
2017-12-27T04:54:33.346Z,98435.36
2017-12-27T04:55:39.542Z,98431.41
2017-12-27T04:56:45.537Z,98431.23
2017-12-27T04:57:52.813Z,98426.58
2017-12-27T04:58:58.984Z,98421.45
2017-12-27T05:00:06.323Z,98425.11
2017-12-27T05:01:12.257Z,98426.00
2017-12-27T05:02:18.795Z,98420.81
2017-12-27T05:03:24.983Z,98423.61
2017-12-27T05:04:31.171Z,98419.19
2017-12-27T05:05:37.408Z,98414.78
2017-12-27T05:06:43.611Z,98408.75
2017-12-27T05:07:49.965Z,98411.31
2017-12-27T05:08:57.699Z,98409.08
2017-12-27T05:10:04.071Z,98409.50
2017-12-27T05:11:10.055Z,98409.47
2017-12-27T05:12:16.266Z,98402.39
2017-12-27T05:13:22.414Z,98394.95
2017-12-27T05:14:28.406Z,98392.14
2017-12-27T05:15:34.454Z,98393.44
2017-12-27T05:16:40.694Z,98393.36
2017-12-27T05:17:46.899Z,98391.73
2017-12-27T05:18:53.086Z,98386.39
2017-12-27T05:19:59.266Z,98386.73
2017-12-27T05:21:04.972Z,98384.92
2017-12-27T05:22:11.199Z,98386.39
2017-12-27T05:23:16.943Z,98384.47
2017-12-27T05:24:23.162Z,98385.61
2017-12-27T05:25:29.354Z,98382.12
2017-12-27T05:26:35.463Z,98379.67
2017-12-27T05:27:41.665Z,98377.92
2017-12-27T05:28:47.450Z,98371.86
2017-12-27T05:29:54.415Z,98368.18
2017-12-27T05:31:01.498Z,98369.42
2017-12-27T05:32:07.524Z,98369.63
2017-12-27T05:33:13.689Z,98366.91
2017-12-27T05:34:19.849Z,98366.91
2017-12-27T05:35:26.177Z,98363.87
2017-12-27T05:36:32.599Z,98361.58
2017-12-27T05:37:38.782Z,98364.20
2017-12-27T05:38:44.941Z,98357.15
2017-12-27T05:39:51.196Z,98363.21
2017-12-27T05:40:57.505Z,98361.97
2017-12-27T05:42:03.708Z,98358.23
2017-12-27T05:43:09.925Z,98350.56
2017-12-27T05:44:16.129Z,98349.00
2017-12-27T05:45:22.340Z,98350.18
2017-12-27T05:46:28.555Z,98346.71
2017-12-27T05:47:34.786Z,98342.04
2017-12-27T05:48:41.017Z,98343.09
2017-12-27T05:49:47.223Z,98338.20
2017-12-27T05:50:53.611Z,98338.23
2017-12-27T05:52:00.854Z,98339.20
2017-12-27T05:53:07.142Z,98334.14
2017-12-27T05:54:13.307Z,98335.73
2017-12-27T05:55:19.271Z,98332.39
2017-12-27T05:56:25.491Z,98328.07
2017-12-27T05:57:31.502Z,98329.70
2017-12-27T05:58:37.811Z,98328.73
2017-12-27T05:59:43.966Z,98320.15
2017-12-27T06:00:50.143Z,98319.23
2017-12-27T06:01:56.304Z,98321.67
2017-12-27T06:03:02.704Z,98319.51
2017-12-27T06:04:08.956Z,98313.39
2017-12-27T06:05:15.289Z,98312.91
2017-12-27T06:06:21.522Z,98315.65
2017-12-27T06:07:28.557Z,98307.84
2017-12-27T06:08:34.710Z,98304.52
2017-12-27T06:09:40.876Z,98311.79
2017-12-27T06:10:47.113Z,98300.45
2017-12-27T06:11:53.359Z,98300.39
2017-12-27T06:12:59.501Z,98301.13
2017-12-27T06:14:05.726Z,98298.55
2017-12-27T06:15:11.910Z,98295.81
2017-12-27T06:16:23.065Z,98300.45
2017-12-27T06:17:29.487Z,98300.94
2017-12-27T06:18:35.713Z,98293.22
2017-12-27T06:19:41.976Z,98289.70
2017-12-27T06:20:48.211Z,98290.27
2017-12-27T06:21:54.461Z,98289.09
2017-12-27T06:23:00.763Z,98291.66
2017-12-27T06:24:06.786Z,98290.66
2017-12-27T06:25:12.973Z,98297.41
2017-12-27T06:26:18.955Z,98289.45
2017-12-27T06:27:25.219Z,98284.92
2017-12-27T06:28:31.440Z,98283.42
2017-12-27T06:29:37.680Z,98272.42
2017-12-27T06:30:45.064Z,98274.44
2017-12-27T06:31:51.274Z,98277.08
2017-12-27T06:32:57.434Z,98280.22
2017-12-27T06:34:03.595Z,98283.14
2017-12-27T06:35:09.813Z,98284.05
2017-12-27T06:36:16.071Z,98283.94
2017-12-27T06:37:22.249Z,98279.80
2017-12-27T06:38:28.414Z,98280.40
2017-12-27T06:39:34.592Z,98282.38
2017-12-27T06:40:40.968Z,98274.72
2017-12-27T06:41:47.188Z,98271.59
2017-12-27T06:42:53.499Z,98268.93
2017-12-27T06:43:59.818Z,98263.51
2017-12-27T06:45:06.057Z,98260.37
2017-12-27T06:46:12.368Z,98257.06
2017-12-27T06:47:18.672Z,98255.67
2017-12-27T06:48:24.813Z,98251.76
2017-12-27T06:49:31.014Z,98258.59
2017-12-27T06:50:37.273Z,98257.25
2017-12-27T06:51:44.893Z,98251.94
2017-12-27T06:52:51.334Z,98254.95
2017-12-27T06:53:57.569Z,98253.95
2017-12-27T06:55:05.712Z,98251.20
2017-12-27T06:56:12.654Z,98245.76
2017-12-27T06:57:18.888Z,98248.77
2017-12-27T06:58:25.110Z,98242.09
2017-12-27T06:59:31.631Z,98235.93
2017-12-27T07:00:37.815Z,98223.17
2017-12-27T07:01:45.087Z,98225.37
2017-12-27T07:02:51.312Z,98223.86
2017-12-27T07:03:57.504Z,98227.83
2017-12-27T07:05:03.689Z,98214.89
2017-12-27T07:06:09.933Z,98218.58
2017-12-27T07:07:16.141Z,98212.45
2017-12-27T07:08:22.408Z,98212.86
2017-12-27T07:09:28.651Z,98208.72
2017-12-27T07:10:34.964Z,98215.11
2017-12-27T07:11:41.202Z,98210.55
2017-12-27T07:12:48.365Z,98213.92
2017-12-27T07:13:54.609Z,98222.38
2017-12-27T07:15:00.802Z,98216.28
2017-12-27T07:16:07.037Z,98218.06
2017-12-27T07:17:13.491Z,98209.86
2017-12-27T07:18:19.785Z,98214.53
2017-12-27T07:19:25.969Z,98213.02
2017-12-27T07:20:36.761Z,98212.34
2017-12-27T07:21:43.888Z,98202.86
2017-12-27T07:22:50.065Z,98210.44
2017-12-27T07:23:56.372Z,98204.31
2017-12-27T07:25:06.445Z,98199.63
2017-12-27T07:26:12.589Z,98196.89
2017-12-27T07:27:18.635Z,98201.69
2017-12-27T07:28:24.798Z,98202.33
2017-12-27T07:29:31.206Z,98203.75
2017-12-27T07:30:37.685Z,98207.28
2017-12-27T07:31:45.892Z,98204.34
2017-12-27T07:32:52.074Z,98202.70
2017-12-27T07:33:58.534Z,98202.80
2017-12-27T07:35:04.685Z,98201.53
2017-12-27T07:36:10.874Z,98200.69
2017-12-27T07:37:16.893Z,98198.78
2017-12-27T07:38:28.952Z,98198.38
2017-12-27T07:39:35.167Z,98193.36
2017-12-27T07:40:41.163Z,98196.47
2017-12-27T07:41:50.821Z,98188.61
2017-12-27T07:42:57.234Z,98190.50
2017-12-27T07:44:03.505Z,98193.53
2017-12-27T07:45:09.740Z,98189.70
2017-12-27T07:46:16.284Z,98184.53
2017-12-27T07:47:22.416Z,98188.09
2017-12-27T07:48:28.789Z,98185.28
2017-12-27T07:49:34.805Z,98187.98
2017-12-27T07:50:41.041Z,98188.20
2017-12-27T07:51:47.175Z,98187.10
2017-12-27T07:52:53.606Z,98184.55
2017-12-27T07:53:59.809Z,98178.64
2017-12-27T07:55:06.471Z,98169.52
2017-12-27T07:56:12.689Z,98168.86
2017-12-27T07:57:18.686Z,98162.38
2017-12-27T07:58:24.827Z,98158.73
2017-12-27T07:59:31.058Z,98153.84
2017-12-27T08:00:37.232Z,98151.96
2017-12-27T08:01:45.432Z,98148.05
2017-12-27T08:02:51.561Z,98152.09
2017-12-27T08:03:57.822Z,98151.58
2017-12-27T08:05:04.008Z,98145.80
2017-12-27T08:06:10.979Z,98141.66
2017-12-27T08:07:17.477Z,98139.64
2017-12-27T08:08:23.819Z,98138.64
2017-12-27T08:09:30.602Z,98142.89
2017-12-27T08:10:36.818Z,98137.18
2017-12-27T08:11:43.063Z,98145.60
2017-12-27T08:12:50.142Z,98145.31
2017-12-27T08:13:56.496Z,98147.80
2017-12-27T08:15:02.855Z,98144.92
2017-12-27T08:16:09.270Z,98143.17
2017-12-27T08:17:15.515Z,98146.48
2017-12-27T08:18:21.760Z,98141.98
2017-12-27T08:19:27.919Z,98140.11
2017-12-27T08:20:34.090Z,98135.16
2017-12-27T08:21:41.535Z,98137.64
2017-12-27T08:22:47.840Z,98129.11
2017-12-27T08:23:54.151Z,98129.83
2017-12-27T08:25:00.173Z,98123.19
2017-12-27T08:26:06.382Z,98118.52
2017-12-27T08:27:12.609Z,98121.13
2017-12-27T08:28:18.804Z,98120.58
2017-12-27T08:29:25.503Z,98127.55
2017-12-27T08:30:31.482Z,98125.27
2017-12-27T08:31:51.936Z,98125.19
2017-12-27T08:33:02.614Z,98116.24
2017-12-27T08:34:08.834Z,98119.24
2017-12-27T08:35:15.025Z,98120.67
2017-12-27T08:36:21.256Z,98118.31
2017-12-27T08:37:27.456Z,98110.41
2017-12-27T08:38:33.945Z,98113.13
2017-12-27T08:39:40.182Z,98110.22
2017-12-27T08:40:46.992Z,98112.27
2017-12-27T08:41:53.212Z,98109.35
2017-12-27T08:42:59.354Z,98116.26
2017-12-27T08:44:05.661Z,98117.88
2017-12-27T08:45:12.145Z,98117.33
2017-12-27T08:46:18.299Z,98113.53
2017-12-27T08:47:24.850Z,98109.26
2017-12-27T08:48:31.164Z,98106.67
2017-12-27T08:49:37.679Z,98102.74
2017-12-27T08:50:45.637Z,98098.34
2017-12-27T08:51:51.852Z,98104.33
2017-12-27T08:52:58.923Z,98092.02
2017-12-27T08:54:05.094Z,98092.81
2017-12-27T08:55:11.315Z,98087.47
2017-12-27T08:56:17.698Z,98086.77
2017-12-27T08:57:23.932Z,98086.63
2017-12-27T08:58:33.954Z,98082.00
2017-12-27T08:59:40.090Z,98087.45
2017-12-27T09:00:46.364Z,98089.42
2017-12-27T09:01:52.660Z,98081.64
2017-12-27T09:02:59.137Z,98088.58
2017-12-27T09:04:05.524Z,98086.67
2017-12-27T09:05:11.934Z,98077.72
2017-12-27T09:06:18.207Z,98073.93
2017-12-27T09:07:24.414Z,98074.93
2017-12-27T09:08:30.631Z,98070.81
2017-12-27T09:09:36.666Z,98072.15
2017-12-27T09:10:43.041Z,98066.67
2017-12-27T09:11:49.776Z,98070.02
2017-12-27T09:12:56.043Z,98071.14
2017-12-27T09:14:02.324Z,98070.17
2017-12-27T09:15:08.631Z,98067.83
2017-12-27T09:16:14.858Z,98069.12
2017-12-27T09:17:21.437Z,98067.38
2017-12-27T09:18:27.776Z,98066.20
2017-12-27T09:19:34.129Z,98064.50
2017-12-27T09:20:40.881Z,98070.16
2017-12-27T09:21:48.302Z,98068.64
2017-12-27T09:22:55.630Z,98065.78
2017-12-27T09:24:02.156Z,98065.22
2017-12-27T09:25:09.305Z,98069.45
2017-12-27T09:26:15.614Z,98068.21
2017-12-27T09:27:21.820Z,98068.77
2017-12-27T09:28:28.813Z,98059.30
2017-12-27T09:29:35.085Z,98062.10
2017-12-27T09:30:41.365Z,98055.59
2017-12-27T09:31:47.752Z,98051.05
2017-12-27T09:32:55.709Z,98050.65
2017-12-27T09:34:03.264Z,98050.28
2017-12-27T09:35:10.337Z,98046.97
2017-12-27T09:36:17.312Z,98045.20
2017-12-27T09:37:24.192Z,98037.36
2017-12-27T09:38:31.467Z,98040.17
2017-12-27T09:39:38.122Z,98039.83
2017-12-27T09:40:45.323Z,98033.31
2017-12-27T09:41:51.915Z,98037.35
2017-12-27T09:42:58.728Z,98032.47
2017-12-27T09:44:06.140Z,98029.55
2017-12-27T09:45:12.868Z,98027.11
2017-12-27T09:46:20.601Z,98031.36
2017-12-27T09:47:27.591Z,98032.16
2017-12-27T09:48:35.652Z,98024.81
2017-12-27T09:49:42.086Z,98028.49
2017-12-27T09:50:48.523Z,98025.42
2017-12-27T09:51:56.293Z,98025.11
2017-12-27T09:53:03.271Z,98022.70
2017-12-27T09:54:11.227Z,98018.34
2017-12-27T09:55:18.424Z,98018.06
2017-12-27T09:56:25.221Z,98015.89
2017-12-27T09:57:33.866Z,98008.09
2017-12-27T09:58:40.507Z,98009.63
2017-12-27T09:59:48.420Z,98003.73
2017-12-27T10:00:57.120Z,98003.45
2017-12-27T10:02:04.074Z,97996.41
2017-12-27T10:03:12.016Z,97999.11
2017-12-27T10:04:18.529Z,97988.89
2017-12-27T10:05:27.228Z,97993.67
2017-12-27T10:06:35.315Z,97988.06
2017-12-27T10:07:41.760Z,97988.23
2017-12-27T10:08:49.404Z,97993.42
2017-12-27T10:09:56.318Z,97988.30
2017-12-27T10:11:03.280Z,97989.07
2017-12-27T10:12:09.606Z,97978.20
2017-12-27T10:13:16.486Z,97980.22
2017-12-27T10:14:22.911Z,97967.56
2017-12-27T10:15:30.017Z,97967.94
2017-12-27T10:16:36.610Z,97968.38
2017-12-27T10:17:43.172Z,97956.47
2017-12-27T10:18:50.883Z,97954.68
2017-12-27T10:19:58.035Z,97950.82
2017-12-27T10:21:04.912Z,97947.23
2017-12-27T10:22:11.823Z,97945.88
2017-12-27T10:23:18.711Z,97945.27
2017-12-27T10:24:25.654Z,97945.03
2017-12-27T10:25:32.465Z,97941.66
2017-12-27T10:26:40.061Z,97932.89
2017-12-27T10:27:47.587Z,97934.72
2017-12-27T10:28:56.246Z,97925.21
2017-12-27T10:30:02.917Z,97926.52
2017-12-27T10:31:10.322Z,97922.96
2017-12-27T10:32:17.205Z,97909.30
2017-12-27T10:33:24.596Z,97911.99
2017-12-27T10:34:31.518Z,97911.16
2017-12-27T10:35:39.212Z,97912.09
2017-12-27T10:36:47.384Z,97907.67
2017-12-27T10:37:53.847Z,97907.80
2017-12-27T10:39:01.429Z,97906.00
2017-12-27T10:40:09.517Z,97900.66
2017-12-27T10:41:16.706Z,97891.83
2017-12-27T10:42:24.788Z,97895.38
2017-12-27T10:43:33.009Z,97886.09
2017-12-27T10:44:40.348Z,97885.87
2017-12-27T10:45:48.472Z,97881.59
2017-12-27T10:46:55.440Z,97884.23
2017-12-27T10:48:02.373Z,97880.91
2017-12-27T10:49:10.786Z,97880.52
2017-12-27T10:50:19.954Z,97882.20
2017-12-27T10:51:29.182Z,97869.48
2017-12-27T10:52:37.448Z,97863.95
2017-12-27T10:53:43.607Z,97862.99
2017-12-27T10:54:50.057Z,97865.70
2017-12-27T10:55:57.887Z,97861.53
2017-12-27T10:57:04.691Z,97861.62
2017-12-27T10:58:12.095Z,97861.95
2017-12-27T10:59:19.644Z,97858.33
2017-12-27T11:00:27.092Z,97852.83
2017-12-27T11:01:35.060Z,97854.70
2017-12-27T11:02:42.354Z,97851.57
2017-12-27T11:03:49.555Z,97855.81
2017-12-27T11:04:56.318Z,97850.66
2017-12-27T11:06:03.596Z,97854.32
2017-12-27T11:07:10.048Z,97854.70
2017-12-27T11:08:16.312Z,97853.70
2017-12-27T11:09:22.521Z,97850.27
2017-12-27T11:10:28.963Z,97852.18
2017-12-27T11:11:35.313Z,97851.30
2017-12-27T11:12:42.522Z,97847.91
2017-12-27T11:13:49.781Z,97841.82
2017-12-27T11:14:56.162Z,97846.28
2017-12-27T11:16:02.595Z,97838.07
2017-12-27T11:17:10.777Z,97830.19
2017-12-27T11:18:17.833Z,97826.58
2017-12-27T11:19:24.205Z,97826.58
2017-12-27T11:20:30.585Z,97818.44
2017-12-27T11:21:38.139Z,97814.50
2017-12-27T11:22:44.312Z,97811.06
2017-12-27T11:23:50.559Z,97811.25
2017-12-27T11:24:56.929Z,97811.88
2017-12-27T11:26:03.367Z,97801.33
2017-12-27T11:27:09.573Z,97798.06
2017-12-27T11:28:16.116Z,97792.66
2017-12-27T11:29:22.931Z,97793.38
2017-12-27T11:30:29.186Z,97794.12
2017-12-27T11:31:35.424Z,97790.28
2017-12-27T11:32:41.658Z,97787.80
2017-12-27T11:33:48.313Z,97790.79
2017-12-27T11:34:54.958Z,97795.55
2017-12-27T11:36:01.338Z,97794.31
2017-12-27T11:37:07.649Z,97792.36
2017-12-27T11:38:13.861Z,97792.73
2017-12-27T11:39:20.527Z,97795.51
2017-12-27T11:40:26.761Z,97795.89
2017-12-27T11:41:33.900Z,97796.05
2017-12-27T11:42:40.396Z,97796.25
2017-12-27T11:43:46.823Z,97791.55
2017-12-27T11:44:53.244Z,97782.53
2017-12-27T11:45:59.539Z,97790.28
2017-12-27T11:47:05.824Z,97782.22
2017-12-27T11:48:12.144Z,97787.27
2017-12-27T11:49:18.561Z,97783.77
2017-12-27T11:50:24.854Z,97783.52
2017-12-27T11:51:31.324Z,97786.80
2017-12-27T11:52:37.806Z,97783.94
2017-12-27T11:53:44.161Z,97782.83
2017-12-27T11:54:50.248Z,97785.55
2017-12-27T11:55:56.517Z,97786.28
2017-12-27T11:57:02.975Z,97780.30
2017-12-27T11:58:15.931Z,97767.75
2017-12-27T11:59:22.714Z,97770.64
2017-12-27T12:00:29.209Z,97772.37
2017-12-27T12:01:37.299Z,97765.86
2017-12-27T12:02:45.295Z,97767.42
2017-12-27T12:03:51.721Z,97772.46
2017-12-27T12:04:58.024Z,97768.97
2017-12-27T12:06:04.907Z,97770.23
2017-12-27T12:07:12.140Z,97764.52
2017-12-27T12:08:18.444Z,97757.16
2017-12-27T12:09:25.036Z,97755.38
2017-12-27T12:10:32.192Z,97744.70
2017-12-27T12:11:45.328Z,97747.89
2017-12-27T12:12:51.584Z,97741.55
2017-12-27T12:13:57.970Z,97736.98
2017-12-27T12:15:04.626Z,97740.45
2017-12-27T12:16:10.930Z,97743.66
2017-12-27T12:17:18.470Z,97738.66
2017-12-27T12:18:25.426Z,97732.32
2017-12-27T12:19:31.866Z,97729.97
2017-12-27T12:20:38.246Z,97732.48
2017-12-27T12:21:44.605Z,97734.80
2017-12-27T12:22:50.936Z,97725.02
2017-12-27T12:23:57.488Z,97733.20
2017-12-27T12:25:04.332Z,97733.28
2017-12-27T12:26:10.614Z,97731.94
2017-12-27T12:27:17.052Z,97736.09
2017-12-27T12:28:23.427Z,97727.48
2017-12-27T12:29:29.785Z,97721.99
2017-12-27T12:30:36.680Z,97721.70
2017-12-27T12:31:44.926Z,97721.11
2017-12-27T12:32:51.373Z,97708.48
2017-12-27T12:33:57.626Z,97703.90
2017-12-27T12:35:04.081Z,97701.21
2017-12-27T12:36:10.514Z,97699.91
2017-12-27T12:37:16.888Z,97694.16
2017-12-27T12:38:23.593Z,97693.44
2017-12-27T12:39:29.918Z,97685.48
2017-12-27T12:40:36.865Z,97684.19
2017-12-27T12:41:43.315Z,97681.30
2017-12-27T12:42:50.675Z,97682.16
2017-12-27T12:43:56.954Z,97686.78
2017-12-27T12:45:08.275Z,97678.34
2017-12-27T12:46:14.673Z,97684.42
2017-12-27T12:47:20.929Z,97681.33
2017-12-27T12:48:27.253Z,97677.64
2017-12-27T12:49:33.636Z,97676.37
2017-12-27T12:50:40.245Z,97674.98
2017-12-27T12:51:47.150Z,97669.23
2017-12-27T12:52:53.519Z,97665.40
2017-12-27T12:53:59.797Z,97660.45
2017-12-27T12:55:06.310Z,97655.10
2017-12-27T12:56:12.727Z,97654.69
2017-12-27T12:57:22.078Z,97650.04
2017-12-27T12:58:28.446Z,97647.16
2017-12-27T12:59:34.968Z,97647.73
2017-12-27T13:00:42.120Z,97646.55
2017-12-27T13:01:48.491Z,97643.75
2017-12-27T13:02:58.426Z,97647.25
2017-12-27T13:04:05.971Z,97644.65
2017-12-27T13:05:12.520Z,97645.41
2017-12-27T13:06:19.101Z,97639.06
2017-12-27T13:07:25.468Z,97638.42
2017-12-27T13:08:31.795Z,97636.49